createdAt,value
2023-02-02T00:01:32.463Z,4.40
2023-02-02T00:04:01.382Z,10.93
2023-02-02T00:06:30.026Z,9.95
2023-02-02T00:08:59.057Z,7.13
2023-02-02T00:11:26.373Z,7.60
2023-02-02T00:13:53.769Z,7.97
2023-02-02T00:16:26.747Z,8.75
2023-02-02T00:18:54.710Z,8.23
2023-02-02T00:21:21.318Z,6.65
2023-02-02T00:23:48.040Z,5.63
2023-02-02T00:26:16.281Z,12.48
2023-02-02T00:28:42.925Z,8.23
2023-02-02T00:31:10.567Z,10.50
2023-02-02T00:33:37.284Z,7.03
2023-02-02T00:36:05.569Z,9.25
2023-02-02T00:38:34.645Z,5.65
2023-02-02T00:41:01.275Z,5.32
2023-02-02T00:43:29.059Z,11.13
2023-02-02T00:45:56.301Z,12.57
2023-02-02T00:48:23.038Z,6.30
2023-02-02T00:50:49.975Z,6.35
2023-02-02T00:53:16.739Z,7.40
2023-02-02T00:55:43.990Z,6.90
2023-02-02T00:58:10.643Z,6.68
2023-02-02T01:00:37.845Z,6.07
2023-02-02T01:03:04.838Z,4.75
2023-02-02T01:05:32.587Z,7.15
2023-02-02T01:07:59.265Z,5.25
2023-02-02T01:10:26.301Z,9.20
2023-02-02T01:12:52.928Z,5.07
2023-02-02T01:15:19.609Z,7.15
2023-02-02T01:17:46.180Z,6.22
2023-02-02T01:20:18.652Z,11.75
2023-02-02T01:22:46.930Z,8.95
2023-02-02T01:25:13.896Z,9.45
2023-02-02T01:27:40.859Z,12.98
2023-02-02T01:30:08.398Z,13.30
2023-02-02T01:32:35.201Z,10.73
2023-02-02T01:35:01.867Z,11.23
2023-02-02T01:37:28.479Z,19.20
2023-02-02T01:39:55.185Z,14.15
2023-02-02T01:42:24.713Z,12.32
2023-02-02T01:45:12.950Z,12.32
2023-02-02T01:47:43.667Z,7.65
2023-02-02T01:50:13.837Z,13.52
2023-02-02T01:52:43.696Z,8.50
2023-02-02T01:55:12.996Z,13.20
2023-02-02T01:57:45.274Z,11.30
2023-02-02T02:00:14.859Z,13.23
2023-02-02T02:02:46.487Z,14.35
2023-02-02T02:05:18.767Z,12.10
2023-02-02T02:07:49.076Z,17.85
2023-02-02T02:10:18.007Z,23.42
2023-02-02T02:12:45.413Z,19.10
2023-02-02T02:15:30.890Z,17.77
2023-02-02T02:18:03.312Z,16.83
2023-02-02T02:21:05.535Z,11.13
2023-02-02T02:23:59.767Z,11.23
2023-02-02T02:26:45.170Z,9.70
2023-02-02T02:29:17.732Z,9.63
2023-02-02T02:32:05.815Z,17.05
2023-02-02T02:34:38.475Z,11.70
2023-02-02T02:37:18.816Z,15.93
2023-02-02T02:40:08.162Z,15.65
2023-02-02T02:42:40.351Z,12.50
2023-02-02T02:45:09.286Z,14.73
2023-02-02T02:47:37.418Z,18.23
2023-02-02T02:50:05.083Z,16.95
2023-02-02T02:52:33.138Z,14.23
2023-02-02T02:55:01.072Z,20.67
2023-02-02T02:58:02.677Z,13.38
2023-02-02T03:00:38.486Z,17.05
2023-02-02T03:03:08.000Z,10.63
2023-02-02T03:06:00.535Z,13.68
2023-02-02T03:08:27.039Z,14.18
2023-02-02T03:10:55.651Z,16.58
2023-02-02T03:13:22.383Z,19.70
2023-02-02T03:15:49.038Z,13.90
2023-02-02T03:18:17.748Z,16.45
2023-02-02T03:20:45.400Z,17.65
2023-02-02T03:23:12.588Z,11.38
2023-02-02T03:25:39.301Z,14.15
2023-02-02T03:28:06.888Z,18.05
2023-02-02T03:30:34.604Z,8.70
2023-02-02T03:33:01.371Z,16.80
2023-02-02T03:35:28.205Z,13.02
2023-02-02T03:37:55.112Z,9.95
2023-02-02T03:40:21.672Z,11.98
2023-02-02T03:42:48.396Z,6.85
2023-02-02T03:45:15.038Z,14.63
2023-02-02T03:47:41.692Z,12.35
2023-02-02T03:50:10.004Z,13.07
2023-02-02T03:52:37.000Z,8.65
2023-02-02T03:55:04.119Z,9.25
2023-02-02T03:57:30.719Z,5.90
2023-02-02T03:59:57.411Z,15.48
2023-02-02T04:02:24.123Z,9.30
2023-02-02T04:04:50.823Z,13.27
2023-02-02T04:07:17.424Z,11.25
2023-02-02T04:09:43.968Z,6.25
2023-02-02T04:12:10.733Z,15.35
2023-02-02T04:14:37.483Z,7.15
2023-02-02T04:17:04.135Z,5.80
2023-02-02T04:19:30.777Z,8.75
2023-02-02T04:21:57.529Z,4.80
2023-02-02T04:24:24.205Z,8.15
2023-02-02T04:26:50.893Z,5.32
2023-02-02T04:29:18.677Z,6.43
2023-02-02T04:31:45.379Z,8.00
2023-02-02T04:34:12.248Z,9.18
2023-02-02T04:36:39.467Z,11.27
2023-02-02T04:39:06.251Z,5.97
2023-02-02T04:41:34.083Z,3.75
2023-02-02T04:44:00.790Z,13.35
2023-02-02T04:46:28.608Z,6.78
2023-02-02T04:48:55.360Z,4.75
2023-02-02T04:51:25.207Z,8.88
2023-02-02T04:53:52.788Z,4.30
2023-02-02T04:56:19.506Z,3.53
2023-02-02T04:58:47.125Z,5.63
2023-02-02T05:01:19.639Z,5.22
2023-02-02T05:03:47.161Z,7.80
2023-02-02T05:06:16.019Z,4.90
2023-02-02T05:08:43.508Z,7.55
2023-02-02T05:11:12.294Z,2.95
2023-02-02T05:13:39.051Z,2.72
2023-02-02T05:16:06.796Z,2.30
2023-02-02T05:18:33.616Z,4.82
2023-02-02T05:21:01.722Z,4.07
2023-02-02T05:23:29.008Z,3.92
2023-02-02T05:25:56.267Z,4.95
2023-02-02T05:28:23.936Z,1.23
2023-02-02T05:30:51.115Z,3.85
2023-02-02T05:33:20.837Z,1.70
2023-02-02T05:35:48.373Z,4.22
2023-02-02T05:38:16.486Z,1.77
2023-02-02T05:40:43.288Z,2.30
2023-02-02T05:43:09.958Z,4.03
2023-02-02T05:45:36.662Z,3.42
2023-02-02T05:48:03.570Z,3.20
2023-02-02T05:50:30.702Z,4.60
2023-02-02T05:52:58.784Z,3.15
2023-02-02T05:55:25.804Z,2.25
2023-02-02T05:57:52.574Z,2.95
2023-02-02T06:00:19.584Z,2.55
2023-02-02T06:02:46.318Z,5.00
2023-02-02T06:05:13.145Z,4.97
2023-02-02T06:07:39.733Z,8.23
2023-02-02T06:10:06.904Z,5.95
2023-02-02T06:12:33.559Z,4.95
2023-02-02T06:15:00.314Z,9.00
2023-02-02T06:17:27.691Z,6.10
2023-02-02T06:19:54.483Z,5.63
2023-02-02T06:22:21.052Z,13.00
2023-02-02T06:24:47.808Z,15.73
2023-02-02T06:27:14.449Z,10.55
2023-02-02T06:29:41.356Z,10.07
2023-02-02T06:32:07.960Z,9.23
2023-02-02T06:34:34.567Z,14.93
2023-02-02T06:37:01.422Z,8.25
2023-02-02T06:39:28.018Z,8.23
2023-02-02T06:41:54.887Z,7.88
2023-02-02T06:44:21.508Z,9.07
2023-02-02T06:46:48.261Z,3.95
2023-02-02T06:49:15.165Z,2.05
2023-02-02T06:51:41.794Z,2.92
2023-02-02T06:54:08.425Z,1.83
2023-02-02T06:56:35.237Z,1.85
2023-02-02T06:59:01.873Z,1.30
2023-02-02T07:01:29.654Z,2.75
2023-02-02T07:03:57.537Z,1.58
2023-02-02T07:06:26.795Z,1.98
2023-02-02T07:09:01.829Z,2.28
2023-02-02T07:11:36.971Z,1.02
2023-02-02T07:14:09.641Z,1.10
2023-02-02T07:16:36.375Z,1.08
2023-02-02T07:19:03.202Z,1.17
2023-02-02T07:21:35.752Z,1.25
2023-02-02T07:24:03.969Z,0.98
2023-02-02T07:26:30.754Z,1.13
2023-02-02T07:28:57.464Z,1.35
2023-02-02T07:31:26.573Z,1.40
2023-02-02T07:33:53.915Z,0.77
2023-02-02T07:36:23.979Z,1.35
2023-02-02T07:38:57.556Z,1.77
2023-02-02T07:41:25.144Z,1.30
2023-02-02T07:43:52.353Z,1.30
2023-02-02T07:46:20.076Z,1.60
2023-02-02T07:48:47.040Z,1.42
2023-02-02T07:51:16.359Z,1.83
2023-02-02T07:53:46.587Z,3.10
2023-02-02T07:56:24.595Z,3.13
2023-02-02T07:58:53.400Z,1.95
2023-02-02T08:01:23.009Z,2.30
2023-02-02T08:03:50.899Z,1.55
2023-02-02T08:06:21.704Z,1.35
2023-02-02T08:08:49.135Z,1.45
2023-02-02T08:11:19.220Z,1.70
2023-02-02T08:13:49.895Z,1.23
2023-02-02T08:16:16.861Z,0.90
2023-02-02T08:18:44.019Z,1.20
2023-02-02T08:21:11.960Z,2.67
2023-02-02T08:23:40.515Z,1.48
2023-02-02T08:26:16.706Z,1.27
2023-02-02T08:28:45.273Z,1.15
2023-02-02T08:31:14.411Z,1.88
2023-02-02T08:33:42.318Z,1.55
2023-02-02T08:36:15.881Z,1.77
2023-02-02T08:38:42.858Z,1.65
2023-02-02T08:41:12.971Z,1.83
2023-02-02T08:43:40.944Z,1.83
2023-02-02T08:46:14.596Z,1.40
2023-02-02T08:48:41.926Z,2.33
2023-02-02T08:51:11.371Z,1.98
2023-02-02T08:53:38.564Z,1.77
2023-02-02T08:56:13.328Z,1.42
2023-02-02T08:58:40.451Z,2.20
2023-02-02T09:01:18.603Z,1.23
2023-02-02T09:03:45.950Z,1.48
2023-02-02T09:06:17.998Z,1.50
2023-02-02T09:08:45.583Z,1.80
2023-02-02T09:11:20.245Z,1.83
2023-02-02T09:13:49.291Z,1.40
2023-02-02T09:16:18.539Z,1.10
2023-02-02T09:18:45.898Z,1.70
2023-02-02T09:21:15.813Z,1.70
2023-02-02T09:23:44.390Z,1.73
2023-02-02T09:26:22.729Z,1.90
2023-02-02T09:28:52.904Z,6.10
2023-02-02T09:31:19.927Z,4.95
2023-02-02T09:33:46.688Z,3.85
2023-02-02T09:36:17.817Z,2.78
2023-02-02T09:38:44.817Z,3.17
2023-02-02T09:41:33.108Z,4.13
2023-02-02T09:44:37.006Z,4.75
2023-02-02T09:47:14.902Z,6.82
2023-02-02T09:49:56.868Z,3.15
2023-02-02T09:52:28.335Z,3.38
2023-02-02T09:55:04.784Z,3.10
2023-02-02T09:57:43.734Z,5.22
2023-02-02T10:00:29.449Z,4.25
2023-02-02T10:03:02.793Z,5.65
2023-02-02T10:05:40.952Z,5.05
2023-02-02T10:08:16.636Z,3.08
2023-02-02T10:10:48.299Z,3.10
2023-02-02T10:13:22.112Z,4.07
2023-02-02T10:16:01.588Z,4.55
2023-02-02T10:18:50.069Z,6.18
2023-02-02T10:21:49.060Z,4.07
2023-02-02T10:24:29.087Z,12.30
2023-02-02T10:26:59.400Z,10.10
2023-02-02T10:29:48.073Z,9.27
2023-02-02T10:32:17.150Z,12.05
2023-02-02T10:35:12.502Z,11.73
2023-02-02T10:37:46.605Z,7.30
2023-02-02T10:40:34.500Z,6.53
2023-02-02T10:43:39.481Z,4.43
2023-02-02T10:46:12.121Z,3.70
2023-02-02T10:48:39.618Z,8.93
2023-02-02T10:51:16.168Z,15.57
2023-02-02T10:53:50.360Z,5.65
2023-02-02T10:56:19.963Z,8.05
2023-02-02T10:58:57.892Z,10.65
2023-02-02T11:01:24.783Z,10.38
2023-02-02T11:04:11.587Z,14.20
2023-02-02T11:06:50.954Z,5.78
2023-02-02T11:09:24.282Z,6.45
2023-02-02T11:12:28.367Z,13.60
2023-02-02T11:15:25.840Z,6.32
2023-02-02T11:17:52.566Z,12.25
2023-02-02T11:20:46.818Z,14.00
2023-02-02T11:23:19.612Z,15.68
2023-02-02T11:25:47.059Z,7.93
2023-02-02T11:28:20.405Z,13.98
2023-02-02T11:30:52.359Z,12.02
2023-02-02T11:33:34.174Z,16.80
2023-02-02T11:36:17.759Z,9.90
2023-02-02T11:38:44.798Z,6.75
2023-02-02T11:41:13.917Z,9.98
2023-02-02T11:43:51.117Z,10.20
2023-02-02T11:46:22.617Z,8.13
2023-02-02T11:49:16.720Z,6.57
2023-02-02T11:51:44.849Z,7.05
2023-02-02T11:54:33.018Z,6.20
2023-02-02T11:57:08.218Z,10.02
2023-02-02T11:59:39.155Z,6.05
2023-02-02T12:02:29.076Z,7.50
2023-02-02T12:05:21.886Z,12.55
2023-02-02T12:07:49.120Z,7.38
2023-02-02T12:10:54.802Z,7.45
2023-02-02T12:13:27.065Z,5.20
2023-02-02T12:16:33.909Z,9.18
2023-02-02T12:19:00.564Z,12.20
2023-02-02T12:21:48.422Z,13.05
2023-02-02T12:24:32.972Z,8.27
2023-02-02T12:27:17.156Z,9.25
2023-02-02T12:29:46.864Z,13.23
2023-02-02T12:32:34.096Z,10.07
2023-02-02T12:35:22.884Z,5.50
2023-02-02T12:38:10.945Z,10.77
2023-02-02T12:40:55.904Z,9.40
2023-02-02T12:44:01.230Z,7.90
2023-02-02T12:46:49.818Z,11.00
2023-02-02T12:49:19.326Z,7.30
2023-02-02T12:52:06.714Z,6.53
2023-02-02T12:57:31.133Z,13.05
2023-02-02T12:59:57.668Z,9.82
2023-02-02T13:02:49.133Z,9.95
2023-02-02T13:05:43.463Z,12.07
2023-02-02T13:08:14.887Z,16.20
2023-02-02T13:10:45.782Z,11.13
2023-02-02T13:13:20.407Z,14.63
2023-02-02T13:15:52.881Z,10.10
2023-02-02T13:18:45.857Z,8.40
2023-02-02T13:21:16.923Z,4.75
2023-02-02T13:23:50.362Z,15.48
2023-02-02T13:26:20.664Z,9.68
2023-02-02T13:29:06.040Z,12.93
2023-02-02T13:31:45.153Z,8.57
2023-02-02T13:34:22.965Z,12.50
2023-02-02T13:37:02.725Z,11.77
2023-02-02T13:39:42.704Z,7.32
2023-02-02T13:42:23.547Z,12.35
2023-02-02T13:44:56.196Z,6.30
2023-02-02T13:47:38.989Z,10.43
2023-02-02T13:50:15.484Z,7.57
2023-02-02T13:52:48.139Z,9.50
2023-02-02T13:55:24.158Z,10.85
2023-02-02T13:58:04.216Z,10.20
2023-02-02T14:00:48.118Z,5.07
2023-02-02T14:03:33.826Z,10.40
2023-02-02T14:06:05.313Z,13.80
2023-02-02T14:08:32.474Z,10.95
2023-02-02T14:11:02.426Z,15.95
2023-02-02T14:14:04.492Z,16.50
2023-02-02T14:16:31.014Z,9.00
2023-02-02T14:19:01.829Z,11.50
2023-02-02T14:21:31.683Z,18.27
2023-02-02T14:24:00.127Z,9.77
2023-02-02T14:26:52.621Z,7.22
2023-02-02T14:29:39.575Z,8.88
2023-02-02T14:32:08.783Z,11.10
2023-02-02T14:34:39.654Z,9.13
2023-02-02T14:37:06.985Z,12.00
2023-02-02T14:39:42.681Z,12.45
2023-02-02T14:43:06.013Z,6.97
2023-02-02T14:45:40.694Z,11.23
2023-02-02T14:48:07.216Z,10.30
2023-02-02T14:50:39.927Z,7.32
2023-02-02T14:53:13.319Z,9.00
2023-02-02T14:56:01.578Z,6.43
2023-02-02T14:58:34.085Z,9.25
2023-02-02T15:01:17.446Z,9.38
2023-02-02T15:03:45.432Z,6.07
2023-02-02T15:06:24.358Z,7.85
2023-02-02T15:09:23.616Z,8.90
2023-02-02T15:12:36.026Z,8.05
2023-02-02T15:15:17.905Z,9.20
2023-02-02T15:18:10.454Z,5.13
2023-02-02T15:20:47.185Z,8.52
2023-02-02T15:23:29.897Z,5.22
2023-02-02T15:26:04.792Z,11.48
2023-02-02T15:28:58.277Z,7.90
2023-02-02T15:31:44.429Z,8.85
2023-02-02T15:34:30.833Z,6.45
2023-02-02T15:37:02.830Z,8.90
2023-02-02T15:39:41.859Z,7.70
2023-02-02T15:42:53.058Z,14.43
2023-02-02T15:45:29.334Z,9.25
2023-02-02T15:47:59.487Z,6.32
2023-02-02T15:50:27.301Z,8.10
2023-02-02T15:52:55.414Z,9.45
2023-02-02T15:55:29.120Z,7.60
2023-02-02T15:57:55.879Z,5.22
2023-02-02T16:00:22.683Z,5.32
2023-02-02T16:02:53.794Z,8.18
2023-02-02T16:05:48.769Z,6.63
2023-02-02T16:08:20.103Z,8.18
2023-02-02T16:10:49.397Z,6.05
2023-02-02T16:13:27.670Z,5.25
2023-02-02T16:15:59.299Z,7.10
2023-02-02T16:18:26.450Z,5.50
2023-02-02T16:20:54.984Z,6.15
2023-02-02T16:23:30.565Z,5.22
2023-02-02T16:26:00.115Z,6.13
2023-02-02T16:28:27.636Z,4.35
2023-02-02T16:30:54.863Z,7.10
2023-02-02T16:33:30.269Z,5.53
2023-02-02T16:35:57.495Z,3.92
2023-02-02T16:38:32.232Z,3.60
2023-02-02T16:41:06.461Z,4.47
2023-02-02T16:43:34.252Z,4.65
2023-02-02T16:46:12.816Z,4.10
2023-02-02T16:49:00.502Z,5.65
2023-02-02T16:51:28.419Z,3.47
2023-02-02T16:54:07.131Z,3.80
2023-02-02T16:56:38.630Z,4.35
2023-02-02T16:59:27.930Z,4.03
2023-02-02T17:02:25.193Z,8.25
2023-02-02T17:05:19.279Z,5.78
2023-02-02T17:07:51.722Z,4.13
2023-02-02T17:10:18.372Z,4.25
2023-02-02T17:12:49.357Z,5.78
2023-02-02T17:15:18.683Z,4.32
2023-02-02T17:17:49.633Z,4.70
2023-02-02T17:20:19.412Z,4.22
2023-02-02T17:22:49.311Z,5.20
2023-02-02T17:25:30.392Z,4.32
2023-02-02T17:27:59.116Z,5.30
2023-02-02T17:30:26.670Z,5.03
2023-02-02T17:32:53.606Z,5.93
2023-02-02T17:35:53.030Z,7.03
2023-02-02T17:38:21.779Z,5.80
2023-02-02T17:40:49.607Z,6.93
2023-02-02T17:43:16.501Z,5.50
2023-02-02T17:45:43.626Z,5.63
2023-02-02T17:48:12.599Z,5.28
2023-02-02T17:50:40.793Z,4.95
2023-02-02T17:53:11.955Z,4.30
2023-02-02T17:55:42.040Z,5.05
2023-02-02T17:58:10.591Z,5.20
2023-02-02T18:00:38.933Z,5.60
2023-02-02T18:03:22.478Z,5.63
2023-02-02T18:05:49.684Z,7.95
2023-02-02T18:08:16.707Z,7.57
2023-02-02T18:10:43.678Z,6.22
2023-02-02T18:13:21.577Z,7.40
2023-02-02T18:15:49.567Z,8.27
2023-02-02T18:18:16.822Z,7.63
2023-02-02T18:20:49.232Z,9.73
2023-02-02T18:23:16.933Z,8.57
2023-02-02T18:25:44.899Z,9.93
2023-02-02T18:28:11.689Z,8.88
2023-02-02T18:30:40.052Z,8.50
2023-02-02T18:33:10.305Z,7.72
2023-02-02T18:35:45.729Z,7.30
2023-02-02T18:38:13.229Z,9.35
2023-02-02T18:40:40.109Z,15.50
2023-02-02T18:43:06.923Z,10.57
2023-02-02T18:45:33.540Z,9.48
2023-02-02T18:48:00.178Z,10.00
2023-02-02T18:50:28.118Z,10.05
2023-02-02T18:52:56.737Z,12.45
2023-02-02T18:55:24.204Z,13.60
2023-02-02T18:57:51.101Z,10.77
2023-02-02T19:00:19.329Z,16.05
2023-02-02T19:02:45.927Z,12.15
2023-02-02T19:05:31.312Z,13.05
2023-02-02T19:08:00.123Z,18.00
2023-02-02T19:10:28.328Z,11.23
2023-02-02T19:13:02.068Z,14.57
2023-02-02T19:15:29.132Z,10.60
2023-02-02T19:17:55.962Z,12.65
2023-02-02T19:20:26.933Z,13.07
2023-02-02T19:23:06.783Z,10.38
2023-02-02T19:25:33.542Z,11.32
2023-02-02T19:28:07.127Z,17.65
2023-02-02T19:30:33.940Z,12.77
2023-02-02T19:33:02.252Z,13.50
2023-02-02T19:35:29.492Z,17.10
2023-02-02T19:38:01.775Z,14.20
2023-02-02T19:40:28.927Z,15.00
2023-02-02T19:43:13.677Z,12.63
2023-02-02T19:45:40.904Z,13.50
2023-02-02T19:48:17.093Z,21.17
2023-02-02T19:50:44.419Z,15.82
2023-02-02T19:53:20.762Z,18.38
2023-02-02T19:55:48.060Z,13.15
2023-02-02T19:58:17.369Z,15.50
2023-02-02T20:00:46.916Z,12.32
2023-02-02T20:03:20.221Z,17.80
2023-02-02T20:05:48.739Z,19.27
2023-02-02T20:08:23.402Z,16.83
2023-02-02T20:10:54.830Z,17.60
2023-02-02T20:13:31.770Z,18.60
2023-02-02T20:16:03.965Z,22.95
2023-02-02T20:18:44.392Z,17.30
2023-02-02T20:21:45.793Z,17.08
2023-02-02T20:24:29.801Z,14.75
2023-02-02T20:27:00.667Z,22.10
2023-02-02T20:29:38.288Z,19.88
2023-02-02T20:32:08.550Z,23.00
2023-02-02T20:34:43.529Z,16.55
2023-02-02T20:37:13.107Z,20.73
2023-02-02T20:39:47.869Z,17.70
2023-02-02T20:42:15.351Z,20.38
2023-02-02T20:44:42.362Z,20.08
2023-02-02T20:47:09.548Z,17.77
2023-02-02T20:49:37.663Z,15.40
2023-02-02T20:52:08.204Z,18.65
2023-02-02T20:54:34.842Z,15.32
2023-02-02T20:57:02.346Z,23.13
2023-02-02T20:59:29.730Z,13.35
2023-02-02T21:01:56.951Z,17.85
2023-02-02T21:04:23.807Z,18.10
2023-02-02T21:06:51.573Z,23.15
2023-02-02T21:09:18.240Z,15.43
2023-02-02T21:11:45.523Z,16.25
2023-02-02T21:14:12.201Z,16.02
2023-02-02T21:16:39.007Z,14.18
2023-02-02T21:19:05.662Z,17.60
2023-02-02T21:21:32.369Z,15.85
2023-02-02T21:24:00.810Z,17.42
2023-02-02T21:26:29.893Z,13.65
2023-02-02T21:28:59.515Z,16.85
2023-02-02T21:31:27.114Z,16.17
2023-02-02T21:33:54.038Z,11.77
2023-02-02T21:36:34.662Z,16.73
2023-02-02T21:39:32.759Z,15.30
2023-02-02T21:42:08.539Z,13.98
2023-02-02T21:44:43.902Z,15.65
2023-02-02T21:47:40.214Z,14.32
2023-02-02T21:50:24.763Z,14.82
2023-02-02T21:52:53.891Z,11.75
2023-02-02T21:55:36.713Z,12.15
2023-02-02T21:58:12.407Z,12.60
2023-02-02T22:00:39.066Z,16.95
2023-02-02T22:03:24.807Z,11.23
2023-02-02T22:05:51.439Z,12.75
2023-02-02T22:08:25.643Z,13.68
2023-02-02T22:10:52.216Z,14.13
2023-02-02T22:13:23.251Z,23.15
2023-02-02T22:15:53.263Z,18.50
2023-02-02T22:18:23.083Z,16.77
2023-02-02T22:20:51.753Z,11.70
2023-02-02T22:23:20.725Z,15.25
2023-02-02T22:25:49.934Z,17.80
2023-02-02T22:28:22.513Z,17.67
2023-02-02T22:30:52.080Z,17.27
2023-02-02T22:33:19.454Z,15.52
2023-02-02T22:35:46.506Z,17.25
2023-02-02T22:38:18.358Z,11.20
2023-02-02T22:40:46.067Z,18.23
2023-02-02T22:43:19.237Z,15.50
2023-02-02T22:45:46.534Z,12.55
2023-02-02T22:48:15.341Z,12.85
2023-02-02T22:50:42.861Z,13.30
2023-02-02T22:53:10.857Z,14.32
2023-02-02T22:55:37.720Z,13.68
2023-02-02T22:58:04.270Z,9.43
2023-02-02T23:00:36.130Z,12.13
2023-02-02T23:03:02.765Z,11.98
2023-02-02T23:05:29.478Z,11.63
2023-02-02T23:07:56.511Z,13.35
2023-02-02T23:10:27.531Z,14.98
2023-02-02T23:12:55.910Z,16.33
2023-02-02T23:15:22.964Z,13.13
2023-02-02T23:17:49.945Z,13.95
2023-02-02T23:20:18.175Z,13.80
2023-02-02T23:22:44.786Z,18.17
2023-02-02T23:25:12.706Z,11.15
2023-02-02T23:27:39.798Z,14.52
2023-02-02T23:30:09.049Z,13.90
2023-02-02T23:32:35.891Z,18.70
2023-02-02T23:35:03.211Z,12.10
2023-02-02T23:37:29.746Z,9.45
2023-02-02T23:39:57.453Z,12.27
2023-02-02T23:42:25.674Z,10.57
2023-02-02T23:44:53.066Z,12.95
2023-02-02T23:47:19.911Z,12.55
2023-02-02T23:49:47.020Z,10.88
2023-02-02T23:52:14.036Z,16.65
2023-02-02T23:54:40.871Z,14.98
2023-02-02T23:57:07.400Z,6.32
2023-02-02T23:59:34.002Z,11.43
